Terminal Aerodrome Forecast
Issued by NWS Cleveland, OH

Home | Current Version | Previous Version | Text Only | Print | Product List | Glossary Off
Versions: 1 2 3 4 5 6 7 8 9 10 11 12 13 14 15 16 17 18 19 20

000
FTUS41 KCLE 260500
TAFTOL
TAF
KTOL 260529Z 2606/2706 27010KT 6SM BR SCT015 OVC045
      TEMPO 2606/2607 OVC015
     FM260700 30004KT 5SM -RA BR OVC015
     FM261100 35007KT 2SM -RASN BR OVC008
     FM261600 30008KT P6SM OVC015
     FM261800 30010KT P6SM OVC025
     FM262000 28010KT P6SM BKN045
     FM270200 28010KT P6SM SKC=

USA.gov is the U.S. government's official web portal to all federal, state and local government web resources and services.